createdAt,value
2019-02-06T00:05:14.323Z,74.70
2019-02-06T00:10:28.571Z,74.90
2019-02-06T00:15:43.194Z,75.20
2019-02-06T00:20:58.193Z,75.20
2019-02-06T00:26:13.626Z,76.10
2019-02-06T00:31:28.412Z,75.50
2019-02-06T00:36:42.611Z,75.50
2019-02-06T00:41:57.479Z,75.60
2019-02-06T00:47:12.558Z,75.60
2019-02-06T00:52:28.099Z,75.80
2019-02-06T00:57:43.023Z,75.80
2019-02-06T01:02:57.378Z,76.00
2019-02-06T01:08:12.461Z,76.10
2019-02-06T01:13:26.873Z,76.30
2019-02-06T01:18:41.846Z,76.50
2019-02-06T01:23:56.223Z,76.70
2019-02-06T01:29:10.765Z,76.80
2019-02-06T01:34:25.197Z,76.90
2019-02-06T01:39:39.792Z,77.90
2019-02-06T01:45:01.989Z,77.20
2019-02-06T01:50:18.173Z,77.40
2019-02-06T01:55:32.903Z,78.30
2019-02-06T02:00:47.334Z,77.70
2019-02-06T02:06:02.758Z,77.80
2019-02-06T02:11:17.654Z,77.90
2019-02-06T02:16:32.165Z,78.00
2019-02-06T02:21:47.242Z,78.10
2019-02-06T02:27:01.729Z,78.00
2019-02-06T02:32:16.327Z,78.80
2019-02-06T02:37:30.576Z,78.10
2019-02-06T02:42:44.911Z,78.10
2019-02-06T02:47:59.678Z,78.20
2019-02-06T02:53:14.399Z,78.20
2019-02-06T02:58:28.919Z,78.20
2019-02-06T03:04:02.244Z,79.00
2019-02-06T03:09:16.617Z,78.40
2019-02-06T03:14:30.805Z,79.30
2019-02-06T03:19:45.277Z,78.60
2019-02-06T03:25:00.502Z,79.40
2019-02-06T03:30:15.983Z,78.80
2019-02-06T03:35:30.629Z,79.00
2019-02-06T03:40:45.017Z,79.00
2019-02-06T03:45:59.318Z,79.10
2019-02-06T03:51:13.893Z,79.20
2019-02-06T03:56:28.512Z,79.20
2019-02-06T04:01:42.886Z,79.40
2019-02-06T04:07:00.884Z,79.50
2019-02-06T04:12:13.402Z,79.60
2019-02-06T04:17:27.545Z,79.70
2019-02-06T04:22:42.445Z,79.80
2019-02-06T04:27:56.615Z,79.70
2019-02-06T04:33:10.716Z,80.00
2019-02-06T04:38:25.504Z,80.00
2019-02-06T04:43:40.089Z,80.00
2019-02-06T04:48:54.529Z,80.10
2019-02-06T04:54:09.130Z,80.10
2019-02-06T04:59:24.220Z,80.20
2019-02-06T05:04:38.858Z,80.30
2019-02-06T05:09:53.052Z,80.30
2019-02-06T05:15:08.239Z,80.50
2019-02-06T05:20:30.598Z,80.60
2019-02-06T05:25:44.996Z,80.70
2019-02-06T05:30:59.377Z,80.90
2019-02-06T05:36:14.354Z,80.80
2019-02-06T05:41:28.825Z,80.90
2019-02-06T05:46:43.485Z,81.70
2019-02-06T05:51:58.045Z,81.00
2019-02-06T05:57:12.688Z,81.30
2019-02-06T06:02:26.740Z,81.40
2019-02-06T06:07:45.403Z,82.10
2019-02-06T06:12:57.447Z,81.50
2019-02-06T06:18:12.193Z,81.40
2019-02-06T06:23:26.297Z,81.50
2019-02-06T06:28:40.761Z,81.60
2019-02-06T06:33:55.114Z,81.80
2019-02-06T06:39:09.928Z,80.00
2019-02-06T06:44:25.082Z,78.40
2019-02-06T06:49:39.731Z,78.10
2019-02-06T06:54:54.613Z,78.60
2019-02-06T07:00:13.160Z,79.00
2019-02-06T07:05:27.433Z,79.50
2019-02-06T07:10:43.129Z,80.50
2019-02-06T07:16:00.365Z,81.80
2019-02-06T07:21:15.001Z,82.60
2019-02-06T07:26:29.295Z,83.40
2019-02-06T07:31:43.838Z,83.80
2019-02-06T07:36:58.885Z,84.00
2019-02-06T07:42:13.607Z,84.20
2019-02-06T07:47:28.284Z,84.10
2019-02-06T07:52:43.170Z,84.90
2019-02-06T07:57:58.473Z,85.30
2019-02-06T08:03:13.489Z,85.90
2019-02-06T08:08:35.773Z,86.50
2019-02-06T08:13:43.964Z,86.80
2019-02-06T08:18:58.961Z,86.90
2019-02-06T08:24:13.443Z,86.90
2019-02-06T08:29:31.400Z,86.90
2019-02-06T08:40:08.287Z,87.60
2019-02-06T08:45:22.654Z,88.10
2019-02-06T08:50:37.592Z,88.10
2019-02-06T08:55:51.974Z,88.20
2019-02-06T09:01:06.739Z,87.90
2019-02-06T09:06:21.227Z,88.00
2019-02-06T09:11:36.065Z,88.20
2019-02-06T09:16:50.503Z,88.40
2019-02-06T09:22:04.802Z,88.20
2019-02-06T09:27:19.333Z,88.30
2019-02-06T09:32:35.056Z,88.70
2019-02-06T09:37:49.473Z,88.60
2019-02-06T09:43:03.893Z,88.70
2019-02-06T09:48:18.677Z,89.40
2019-02-06T09:53:33.756Z,91.10
2019-02-06T09:58:48.250Z,91.20
2019-02-06T10:04:03.327Z,90.70
2019-02-06T10:09:22.895Z,90.40
2019-02-06T10:14:34.745Z,89.40
2019-02-06T10:19:49.615Z,89.10
2019-02-06T10:25:04.514Z,88.50
2019-02-06T10:30:23.730Z,88.20
2019-02-06T10:35:38.492Z,87.50
2019-02-06T10:40:53.261Z,87.40
2019-02-06T10:46:08.494Z,86.60
2019-02-06T10:51:23.949Z,85.90
2019-02-06T10:56:38.670Z,85.40
2019-02-06T11:01:53.318Z,85.20
2019-02-06T11:07:08.435Z,84.00
2019-02-06T11:12:24.694Z,82.50
2019-02-06T11:17:38.978Z,82.60
2019-02-06T11:22:53.740Z,82.50
2019-02-06T11:28:08.869Z,80.90
2019-02-06T11:33:23.025Z,78.70
2019-02-06T11:38:37.515Z,76.90
2019-02-06T11:43:51.918Z,75.70
2019-02-06T11:49:07.511Z,73.30
2019-02-06T11:54:21.983Z,73.20
2019-02-06T11:59:36.114Z,71.50
2019-02-06T12:04:50.737Z,70.20
2019-02-06T12:10:10.142Z,68.90
2019-02-06T12:15:25.016Z,67.50
2019-02-06T12:20:39.694Z,65.40
2019-02-06T12:25:54.506Z,65.30
2019-02-06T12:31:08.805Z,63.40
2019-02-06T12:36:23.025Z,64.40
2019-02-06T12:41:37.397Z,61.70
2019-02-06T12:46:51.526Z,62.60
2019-02-06T12:52:06.262Z,61.20
2019-02-06T12:57:20.897Z,60.90
2019-02-06T13:02:35.361Z,59.60
2019-02-06T13:07:50.009Z,57.90
2019-02-06T13:13:05.716Z,57.30
2019-02-06T13:18:20.175Z,56.10
2019-02-06T13:23:34.756Z,55.80
2019-02-06T13:28:49.102Z,54.80
2019-02-06T13:34:05.231Z,53.60
2019-02-06T13:39:19.712Z,53.40
2019-02-06T13:44:34.003Z,52.20
2019-02-06T13:49:48.395Z,51.30
2019-02-06T13:55:02.893Z,48.70
2019-02-06T14:00:20.153Z,49.90
2019-02-06T14:05:34.868Z,48.10
2019-02-06T14:10:59.846Z,49.50
2019-02-06T14:16:07.106Z,48.70
2019-02-06T14:21:21.521Z,48.10
2019-02-06T14:27:07.611Z,45.80
2019-02-06T14:32:56.606Z,44.40
2019-02-06T14:38:54.864Z,43.90
2019-02-06T14:44:53.197Z,42.80
2019-02-06T14:50:43.282Z,42.20
2019-02-06T14:56:19.846Z,42.30
2019-02-06T15:02:20.647Z,40.20
2019-02-06T15:08:09.828Z,39.80
2019-02-06T15:13:47.468Z,39.40
2019-02-06T15:19:27.418Z,39.80
2019-02-06T15:25:17.400Z,40.00
2019-02-06T15:31:07.745Z,41.50
2019-02-06T15:36:57.273Z,41.80
2019-02-06T15:42:43.150Z,42.80
2019-02-06T15:48:52.495Z,43.50
2019-02-06T15:54:50.835Z,44.10
2019-02-06T16:00:47.883Z,45.90
2019-02-06T16:06:50.393Z,46.90
2019-02-06T16:12:31.110Z,47.60
2019-02-06T16:18:07.245Z,48.70
2019-02-06T16:23:58.639Z,49.60
2019-02-06T16:29:36.091Z,50.50
2019-02-06T16:35:08.893Z,51.10
2019-02-06T16:40:56.121Z,51.20
2019-02-06T16:46:47.783Z,51.50
2019-02-06T16:52:31.538Z,51.70
2019-02-06T16:58:26.386Z,51.90
2019-02-06T17:04:32.418Z,52.30
2019-02-06T17:10:19.250Z,53.50
2019-02-06T17:16:01.186Z,55.30
2019-02-06T17:21:37.930Z,56.20
2019-02-06T17:27:17.489Z,56.50
2019-02-06T17:32:58.015Z,56.50
2019-02-06T17:38:59.398Z,56.80
2019-02-06T17:44:54.500Z,56.90
2019-02-06T17:50:43.722Z,57.00
2019-02-06T17:55:58.255Z,57.00
2019-02-06T18:01:39.591Z,57.00
2019-02-06T18:06:55.470Z,57.10
2019-02-06T18:12:10.230Z,57.10
2019-02-06T18:17:25.067Z,57.20
2019-02-06T18:22:40.109Z,57.10
2019-02-06T18:27:54.982Z,57.20
2019-02-06T18:33:09.688Z,57.20
2019-02-06T18:38:24.891Z,57.30
2019-02-06T18:43:39.145Z,57.30
2019-02-06T18:48:53.790Z,57.40
2019-02-06T18:54:09.949Z,57.30
2019-02-06T18:59:24.883Z,57.50
2019-02-06T19:04:39.213Z,57.50
2019-02-06T19:09:53.738Z,57.60
2019-02-06T19:15:09.539Z,57.60
2019-02-06T19:20:24.423Z,57.70
2019-02-06T19:25:38.785Z,57.70
2019-02-06T19:30:55.523Z,57.80
2019-02-06T19:36:09.239Z,57.90
2019-02-06T19:41:24.360Z,58.00
2019-02-06T19:46:39.027Z,57.90
2019-02-06T19:51:54.265Z,58.00
2019-02-06T19:57:08.802Z,57.90
2019-02-06T20:02:23.828Z,57.90
2019-02-06T20:07:38.692Z,57.90
2019-02-06T20:12:53.779Z,57.80
2019-02-06T20:18:08.656Z,57.80
2019-02-06T20:23:23.223Z,57.80
2019-02-06T20:28:37.714Z,57.30
2019-02-06T20:33:53.557Z,57.70
2019-02-06T20:39:11.510Z,57.80
2019-02-06T20:44:26.202Z,58.30
2019-02-06T20:49:40.599Z,57.90
2019-02-06T20:54:55.238Z,57.90
2019-02-06T21:00:13.891Z,57.90
2019-02-06T21:05:28.403Z,58.10
2019-02-06T21:10:42.948Z,58.20
2019-02-06T21:15:58.517Z,58.30
2019-02-06T21:21:13.735Z,58.60
2019-02-06T21:26:28.374Z,58.70
2019-02-06T21:31:43.505Z,58.90
2019-02-06T21:36:57.870Z,59.10
2019-02-06T21:42:12.288Z,59.30
2019-02-06T21:47:27.482Z,59.40
2019-02-06T21:52:41.981Z,59.20
2019-02-06T21:57:57.320Z,59.80
2019-02-06T22:03:16.382Z,59.90
2019-02-06T22:08:31.033Z,60.10
2019-02-06T22:13:55.049Z,60.30
2019-02-06T22:19:02.023Z,60.60
2019-02-06T22:24:16.703Z,60.80
2019-02-06T22:29:30.860Z,61.00
2019-02-06T22:34:45.944Z,61.10
2019-02-06T22:40:00.711Z,61.30
2019-02-06T22:45:20.411Z,61.50
2019-02-06T22:50:36.249Z,61.50
2019-02-06T22:55:50.850Z,61.80
2019-02-06T23:01:29.670Z,62.10
2019-02-06T23:06:44.626Z,62.10
2019-02-06T23:11:58.970Z,62.30
2019-02-06T23:17:13.599Z,62.40
2019-02-06T23:22:27.983Z,62.50
2019-02-06T23:27:42.446Z,62.70
2019-02-06T23:32:57.275Z,62.90
2019-02-06T23:38:12.186Z,63.10
